Terminal Aerodrome Forecast
Issued by NWS Duluth, MN

Home | Current Version | Previous Version | Text Only | Print | Product List | Glossary On
Versions: 1 2 3 4 5 6 7 8 9 10 11 12 13
000
FTUS43 KDLH 280800 AAA
TAFDLH
TAF AMD
KDLH 280837Z 2809/2906 00000KT P6SM SKC WS010/18030KT
     FM281400 32008KT P6SM OVC080
     FM281800 33012KT P6SM OVC050
     FM282100 34014KT P6SM SCT060
     FM290000 34007KT P6SM SKC=

USA.gov is the U.S. government's official web portal to all federal, state and local government web resources and services.